sensor_id;sensor_type;location;lat;lon;timestamp;temperature;humidity
22974;DHT22;11653;50.848;4.584;2022-08-21T00:01:07;15.60;99.90
22974;DHT22;11653;50.848;4.584;2022-08-21T00:03:35;15.60;99.90
22974;DHT22;11653;50.848;4.584;2022-08-21T00:06:02;15.70;99.90
22974;DHT22;11653;50.848;4.584;2022-08-21T00:08:28;15.60;99.90
22974;DHT22;11653;50.848;4.584;2022-08-21T00:10:54;15.60;99.90
22974;DHT22;11653;50.848;4.584;2022-08-21T00:13:20;15.40;99.90
22974;DHT22;11653;50.848;4.584;2022-08-21T00:15:46;15.40;99.90
22974;DHT22;11653;50.848;4.584;2022-08-21T00:18:13;15.40;99.90
22974;DHT22;11653;50.848;4.584;2022-08-21T00:20:40;15.40;99.90
22974;DHT22;11653;50.848;4.584;2022-08-21T00:23:06;15.40;99.90
22974;DHT22;11653;50.848;4.584;2022-08-21T00:25:32;15.40;99.90
22974;DHT22;11653;50.848;4.584;2022-08-21T00:27:58;15.30;99.90
22974;DHT22;11653;50.848;4.584;2022-08-21T00:30:25;15.20;99.90
22974;DHT22;11653;50.848;4.584;2022-08-21T00:32:53;15.30;99.90
22974;DHT22;11653;50.848;4.584;2022-08-21T00:35:23;15.30;99.90
22974;DHT22;11653;50.848;4.584;2022-08-21T00:37:48;15.20;99.90
22974;DHT22;11653;50.848;4.584;2022-08-21T00:40:19;15.20;99.90
22974;DHT22;11653;50.848;4.584;2022-08-21T00:42:45;15.20;99.90
22974;DHT22;11653;50.848;4.584;2022-08-21T00:45:11;15.20;99.90
22974;DHT22;11653;50.848;4.584;2022-08-21T00:47:37;15.20;99.90
22974;DHT22;11653;50.848;4.584;2022-08-21T00:50:06;15.20;99.90
22974;DHT22;11653;50.848;4.584;2022-08-21T00:52:34;15.20;99.90
22974;DHT22;11653;50.848;4.584;2022-08-21T00:55:01;15.10;99.90
22974;DHT22;11653;50.848;4.584;2022-08-21T00:57:32;15.10;99.90
22974;DHT22;11653;50.848;4.584;2022-08-21T01:00:02;15.10;99.90
22974;DHT22;11653;50.848;4.584;2022-08-21T01:02:29;15.00;99.90
22974;DHT22;11653;50.848;4.584;2022-08-21T01:04:54;15.00;99.90
22974;DHT22;11653;50.848;4.584;2022-08-21T01:07:20;15.00;99.90
22974;DHT22;11653;50.848;4.584;2022-08-21T01:09:47;15.00;99.90
22974;DHT22;11653;50.848;4.584;2022-08-21T01:12:14;14.90;99.90
22974;DHT22;11653;50.848;4.584;2022-08-21T01:14:41;14.90;99.90
22974;DHT22;11653;50.848;4.584;2022-08-21T01:17:09;14.80;99.90
22974;DHT22;11653;50.848;4.584;2022-08-21T01:19:36;14.80;99.90
22974;DHT22;11653;50.848;4.584;2022-08-21T01:22:02;14.80;99.90
22974;DHT22;11653;50.848;4.584;2022-08-21T01:24:28;14.80;99.90
22974;DHT22;11653;50.848;4.584;2022-08-21T01:26:54;14.80;99.90
22974;DHT22;11653;50.848;4.584;2022-08-21T01:29:34;14.90;99.90
22974;DHT22;11653;50.848;4.584;2022-08-21T01:32:06;14.80;99.90
22974;DHT22;11653;50.848;4.584;2022-08-21T01:34:34;14.80;99.90
22974;DHT22;11653;50.848;4.584;2022-08-21T01:37:02;14.70;99.90
22974;DHT22;11653;50.848;4.584;2022-08-21T01:39:28;14.70;99.90
22974;DHT22;11653;50.848;4.584;2022-08-21T01:41:54;14.70;99.90
22974;DHT22;11653;50.848;4.584;2022-08-21T01:44:21;14.70;99.90
22974;DHT22;11653;50.848;4.584;2022-08-21T01:46:47;14.70;99.90
22974;DHT22;11653;50.848;4.584;2022-08-21T01:49:14;14.70;99.90
22974;DHT22;11653;50.848;4.584;2022-08-21T01:51:41;14.70;99.90
22974;DHT22;11653;50.848;4.584;2022-08-21T01:54:06;14.70;99.90
22974;DHT22;11653;50.848;4.584;2022-08-21T01:56:41;14.60;99.90
22974;DHT22;11653;50.848;4.584;2022-08-21T01:59:09;14.60;99.90
22974;DHT22;11653;50.848;4.584;2022-08-21T02:01:36;14.60;99.90
22974;DHT22;11653;50.848;4.584;2022-08-21T02:04:02;14.50;99.90
22974;DHT22;11653;50.848;4.584;2022-08-21T02:06:28;14.40;99.90
22974;DHT22;11653;50.848;4.584;2022-08-21T02:08:53;14.40;99.90
22974;DHT22;11653;50.848;4.584;2022-08-21T02:11:19;14.40;99.90
22974;DHT22;11653;50.848;4.584;2022-08-21T02:13:45;14.40;99.90
22974;DHT22;11653;50.848;4.584;2022-08-21T02:16:12;14.40;99.90
22974;DHT22;11653;50.848;4.584;2022-08-21T02:18:37;14.20;99.90
22974;DHT22;11653;50.848;4.584;2022-08-21T02:21:04;14.20;99.90
22974;DHT22;11653;50.848;4.584;2022-08-21T02:23:30;14.20;99.90
22974;DHT22;11653;50.848;4.584;2022-08-21T02:26:01;14.20;99.90
22974;DHT22;11653;50.848;4.584;2022-08-21T02:28:27;14.20;99.90
22974;DHT22;11653;50.848;4.584;2022-08-21T02:30:54;14.20;99.90
22974;DHT22;11653;50.848;4.584;2022-08-21T02:33:21;14.20;99.90
22974;DHT22;11653;50.848;4.584;2022-08-21T02:35:47;14.10;99.90
22974;DHT22;11653;50.848;4.584;2022-08-21T02:38:17;14.00;99.90
22974;DHT22;11653;50.848;4.584;2022-08-21T02:40:45;14.00;99.90
22974;DHT22;11653;50.848;4.584;2022-08-21T02:43:12;14.00;99.90
22974;DHT22;11653;50.848;4.584;2022-08-21T02:45:39;14.00;99.90
22974;DHT22;11653;50.848;4.584;2022-08-21T02:48:08;14.00;99.90
22974;DHT22;11653;50.848;4.584;2022-08-21T02:50:37;14.00;99.90
22974;DHT22;11653;50.848;4.584;2022-08-21T02:53:04;14.00;99.90
22974;DHT22;11653;50.848;4.584;2022-08-21T02:55:32;14.00;99.90
22974;DHT22;11653;50.848;4.584;2022-08-21T02:57:59;14.00;99.90
22974;DHT22;11653;50.848;4.584;2022-08-21T03:00:27;14.00;99.90
22974;DHT22;11653;50.848;4.584;2022-08-21T03:02:54;14.00;99.90
22974;DHT22;11653;50.848;4.584;2022-08-21T03:05:21;13.90;99.90
22974;DHT22;11653;50.848;4.584;2022-08-21T03:07:47;13.80;99.90
22974;DHT22;11653;50.848;4.584;2022-08-21T03:10:14;13.80;99.90
22974;DHT22;11653;50.848;4.584;2022-08-21T03:12:40;13.80;99.90
22974;DHT22;11653;50.848;4.584;2022-08-21T03:15:09;13.80;99.90
22974;DHT22;11653;50.848;4.584;2022-08-21T03:17:36;13.80;99.90
22974;DHT22;11653;50.848;4.584;2022-08-21T03:20:02;13.70;99.90
22974;DHT22;11653;50.848;4.584;2022-08-21T03:22:28;13.70;99.90
22974;DHT22;11653;50.848;4.584;2022-08-21T03:24:54;13.70;99.90
22974;DHT22;11653;50.848;4.584;2022-08-21T03:27:20;13.80;99.90
22974;DHT22;11653;50.848;4.584;2022-08-21T03:29:45;13.70;99.90
22974;DHT22;11653;50.848;4.584;2022-08-21T03:32:11;13.70;99.90
22974;DHT22;11653;50.848;4.584;2022-08-21T03:34:38;13.70;99.90
22974;DHT22;11653;50.848;4.584;2022-08-21T03:37:05;13.60;99.90
22974;DHT22;11653;50.848;4.584;2022-08-21T03:39:31;13.60;99.90
22974;DHT22;11653;50.848;4.584;2022-08-21T03:41:57;13.60;99.90
22974;DHT22;11653;50.848;4.584;2022-08-21T03:44:23;13.60;99.90
22974;DHT22;11653;50.848;4.584;2022-08-21T03:46:48;13.60;99.90
22974;DHT22;11653;50.848;4.584;2022-08-21T03:49:14;13.60;99.90
22974;DHT22;11653;50.848;4.584;2022-08-21T03:51:40;13.60;99.90
22974;DHT22;11653;50.848;4.584;2022-08-21T03:54:06;13.60;99.90
22974;DHT22;11653;50.848;4.584;2022-08-21T03:56:31;13.50;99.90
22974;DHT22;11653;50.848;4.584;2022-08-21T03:58:57;13.60;99.90
22974;DHT22;11653;50.848;4.584;2022-08-21T04:01:23;13.50;99.90
22974;DHT22;11653;50.848;4.584;2022-08-21T04:03:49;13.50;99.90
22974;DHT22;11653;50.848;4.584;2022-08-21T04:06:15;13.50;99.90
22974;DHT22;11653;50.848;4.584;2022-08-21T04:08:40;13.50;99.90
22974;DHT22;11653;50.848;4.584;2022-08-21T04:11:08;13.50;99.90
22974;DHT22;11653;50.848;4.584;2022-08-21T04:13:36;13.40;99.90
22974;DHT22;11653;50.848;4.584;2022-08-21T04:16:02;13.40;99.90
22974;DHT22;11653;50.848;4.584;2022-08-21T04:18:27;13.40;99.90
22974;DHT22;11653;50.848;4.584;2022-08-21T04:20:54;13.30;99.90
22974;DHT22;11653;50.848;4.584;2022-08-21T04:23:23;13.30;99.90
22974;DHT22;11653;50.848;4.584;2022-08-21T04:25:49;13.20;99.90
22974;DHT22;11653;50.848;4.584;2022-08-21T04:28:15;13.20;99.90
22974;DHT22;11653;50.848;4.584;2022-08-21T04:30:40;13.10;99.90
22974;DHT22;11653;50.848;4.584;2022-08-21T04:33:06;13.20;99.90
22974;DHT22;11653;50.848;4.584;2022-08-21T04:35:32;13.30;99.90
22974;DHT22;11653;50.848;4.584;2022-08-21T04:37:58;13.20;99.90
22974;DHT22;11653;50.848;4.584;2022-08-21T04:40:26;13.30;99.90
22974;DHT22;11653;50.848;4.584;2022-08-21T04:42:56;13.30;99.90
22974;DHT22;11653;50.848;4.584;2022-08-21T04:45:28;13.20;99.90
22974;DHT22;11653;50.848;4.584;2022-08-21T04:47:56;13.10;99.90
22974;DHT22;11653;50.848;4.584;2022-08-21T04:52:56;13.10;99.90
22974;DHT22;11653;50.848;4.584;2022-08-21T04:55:22;13.20;99.90
22974;DHT22;11653;50.848;4.584;2022-08-21T04:57:49;13.20;99.90
22974;DHT22;11653;50.848;4.584;2022-08-21T05:00:17;13.20;99.90
22974;DHT22;11653;50.848;4.584;2022-08-21T05:02:44;13.30;99.90
22974;DHT22;11653;50.848;4.584;2022-08-21T05:05:10;13.30;99.90
22974;DHT22;11653;50.848;4.584;2022-08-21T05:07:35;13.40;99.90
22974;DHT22;11653;50.848;4.584;2022-08-21T05:10:02;13.50;99.90
22974;DHT22;11653;50.848;4.584;2022-08-21T05:12:28;13.50;99.90
22974;DHT22;11653;50.848;4.584;2022-08-21T05:14:55;13.50;99.90
22974;DHT22;11653;50.848;4.584;2022-08-21T05:17:21;13.50;99.90
22974;DHT22;11653;50.848;4.584;2022-08-21T05:19:47;13.60;99.90
22974;DHT22;11653;50.848;4.584;2022-08-21T05:22:20;13.70;99.90
22974;DHT22;11653;50.848;4.584;2022-08-21T05:24:45;13.90;99.90
22974;DHT22;11653;50.848;4.584;2022-08-21T05:27:11;14.40;99.90
22974;DHT22;11653;50.848;4.584;2022-08-21T05:29:36;14.90;99.90
22974;DHT22;11653;50.848;4.584;2022-08-21T05:32:08;15.50;99.90
22974;DHT22;11653;50.848;4.584;2022-08-21T05:34:34;16.10;99.90
22974;DHT22;11653;50.848;4.584;2022-08-21T05:37:00;16.80;99.90
22974;DHT22;11653;50.848;4.584;2022-08-21T05:39:26;17.40;99.90
22974;DHT22;11653;50.848;4.584;2022-08-21T05:41:51;18.10;99.90
22974;DHT22;11653;50.848;4.584;2022-08-21T05:44:17;18.60;99.90
22974;DHT22;11653;50.848;4.584;2022-08-21T05:46:43;19.00;99.90
22974;DHT22;11653;50.848;4.584;2022-08-21T05:49:08;19.30;99.90
22974;DHT22;11653;50.848;4.584;2022-08-21T05:51:34;19.60;99.90
22974;DHT22;11653;50.848;4.584;2022-08-21T05:54:00;19.80;99.90
22974;DHT22;11653;50.848;4.584;2022-08-21T05:56:26;20.20;99.90
22974;DHT22;11653;50.848;4.584;2022-08-21T05:58:51;20.70;99.90
22974;DHT22;11653;50.848;4.584;2022-08-21T06:01:17;21.20;99.90
22974;DHT22;11653;50.848;4.584;2022-08-21T06:03:43;21.70;99.90
22974;DHT22;11653;50.848;4.584;2022-08-21T06:06:09;22.30;99.90
22974;DHT22;11653;50.848;4.584;2022-08-21T06:08:35;22.90;99.90
22974;DHT22;11653;50.848;4.584;2022-08-21T06:11:02;23.60;99.90
22974;DHT22;11653;50.848;4.584;2022-08-21T06:13:28;24.20;99.30
22974;DHT22;11653;50.848;4.584;2022-08-21T06:16:07;24.80;97.20
22974;DHT22;11653;50.848;4.584;2022-08-21T06:18:33;25.40;96.00
22974;DHT22;11653;50.848;4.584;2022-08-21T06:20:59;25.90;94.20
22974;DHT22;11653;50.848;4.584;2022-08-21T06:23:24;26.40;92.80
22974;DHT22;11653;50.848;4.584;2022-08-21T06:25:50;27.10;91.70
22974;DHT22;11653;50.848;4.584;2022-08-21T06:28:16;27.50;90.30
22974;DHT22;11653;50.848;4.584;2022-08-21T06:30:41;28.10;87.80
22974;DHT22;11653;50.848;4.584;2022-08-21T06:33:08;28.50;85.40
22974;DHT22;11653;50.848;4.584;2022-08-21T06:35:34;28.60;83.10
22974;DHT22;11653;50.848;4.584;2022-08-21T06:38:00;28.60;82.50
22974;DHT22;11653;50.848;4.584;2022-08-21T06:40:27;28.70;83.40
22974;DHT22;11653;50.848;4.584;2022-08-21T06:42:53;29.10;81.90
22974;DHT22;11653;50.848;4.584;2022-08-21T06:45:20;29.20;80.00
22974;DHT22;11653;50.848;4.584;2022-08-21T06:47:46;29.40;79.40
22974;DHT22;11653;50.848;4.584;2022-08-21T06:50:11;29.50;77.70
22974;DHT22;11653;50.848;4.584;2022-08-21T06:52:38;29.40;77.90
22974;DHT22;11653;50.848;4.584;2022-08-21T06:55:09;29.50;78.60
22974;DHT22;11653;50.848;4.584;2022-08-21T06:57:35;29.70;79.20
22974;DHT22;11653;50.848;4.584;2022-08-21T07:00:03;30.00;77.90
22974;DHT22;11653;50.848;4.584;2022-08-21T07:02:30;30.20;75.80
22974;DHT22;11653;50.848;4.584;2022-08-21T07:04:55;30.20;76.70
22974;DHT22;11653;50.848;4.584;2022-08-21T07:07:21;30.30;75.10
22974;DHT22;11653;50.848;4.584;2022-08-21T07:09:47;30.20;76.50
22974;DHT22;11653;50.848;4.584;2022-08-21T07:12:12;30.30;75.90
22974;DHT22;11653;50.848;4.584;2022-08-21T07:14:38;30.40;74.80
22974;DHT22;11653;50.848;4.584;2022-08-21T07:17:04;30.30;74.20
22974;DHT22;11653;50.848;4.584;2022-08-21T07:19:29;30.30;75.50
22974;DHT22;11653;50.848;4.584;2022-08-21T07:21:59;30.40;73.70
22974;DHT22;11653;50.848;4.584;2022-08-21T07:24:25;30.40;73.30
22974;DHT22;11653;50.848;4.584;2022-08-21T07:26:51;30.60;74.00
22974;DHT22;11653;50.848;4.584;2022-08-21T07:29:17;30.90;71.80
22974;DHT22;11653;50.848;4.584;2022-08-21T07:31:44;31.20;71.80
22974;DHT22;11653;50.848;4.584;2022-08-21T07:34:10;31.50;69.30
22974;DHT22;11653;50.848;4.584;2022-08-21T07:36:37;31.50;69.00
22974;DHT22;11653;50.848;4.584;2022-08-21T07:39:03;31.40;69.70
22974;DHT22;11653;50.848;4.584;2022-08-21T07:41:29;31.40;69.50
22974;DHT22;11653;50.848;4.584;2022-08-21T07:43:58;31.00;69.80
22974;DHT22;11653;50.848;4.584;2022-08-21T07:46:25;30.60;71.20
22974;DHT22;11653;50.848;4.584;2022-08-21T07:48:51;30.00;72.10
22974;DHT22;11653;50.848;4.584;2022-08-21T07:51:18;29.40;74.90
22974;DHT22;11653;50.848;4.584;2022-08-21T07:53:53;29.30;76.50
22974;DHT22;11653;50.848;4.584;2022-08-21T07:56:19;29.50;76.60
22974;DHT22;11653;50.848;4.584;2022-08-21T07:58:45;29.30;75.20
22974;DHT22;11653;50.848;4.584;2022-08-21T08:01:11;29.10;75.60
22974;DHT22;11653;50.848;4.584;2022-08-21T08:03:37;29.60;74.60
22974;DHT22;11653;50.848;4.584;2022-08-21T08:06:04;29.90;72.80
22974;DHT22;11653;50.848;4.584;2022-08-21T08:08:30;29.80;72.50
22974;DHT22;11653;50.848;4.584;2022-08-21T08:10:56;29.80;73.70
22974;DHT22;11653;50.848;4.584;2022-08-21T08:13:23;29.80;73.90
22974;DHT22;11653;50.848;4.584;2022-08-21T08:15:49;29.40;72.80
22974;DHT22;11653;50.848;4.584;2022-08-21T08:18:15;29.10;74.10
22974;DHT22;11653;50.848;4.584;2022-08-21T08:20:40;28.60;75.40
22974;DHT22;11653;50.848;4.584;2022-08-21T08:23:09;27.90;77.20
22974;DHT22;11653;50.848;4.584;2022-08-21T08:25:35;27.60;79.90
22974;DHT22;11653;50.848;4.584;2022-08-21T08:28:00;27.50;81.10
22974;DHT22;11653;50.848;4.584;2022-08-21T08:30:26;27.20;80.60
22974;DHT22;11653;50.848;4.584;2022-08-21T08:32:52;27.40;81.40
22974;DHT22;11653;50.848;4.584;2022-08-21T08:35:18;27.70;78.80
22974;DHT22;11653;50.848;4.584;2022-08-21T08:37:44;27.40;79.10
22974;DHT22;11653;50.848;4.584;2022-08-21T08:40:18;27.20;80.10
22974;DHT22;11653;50.848;4.584;2022-08-21T08:42:46;27.00;80.50
22974;DHT22;11653;50.848;4.584;2022-08-21T08:45:16;26.70;81.40
22974;DHT22;11653;50.848;4.584;2022-08-21T08:47:53;26.80;81.10
22974;DHT22;11653;50.848;4.584;2022-08-21T08:50:56;26.80;81.10
22974;DHT22;11653;50.848;4.584;2022-08-21T08:53:27;27.10;82.00
22974;DHT22;11653;50.848;4.584;2022-08-21T08:55:55;27.80;79.90
22974;DHT22;11653;50.848;4.584;2022-08-21T08:58:32;28.30;77.70
22974;DHT22;11653;50.848;4.584;2022-08-21T09:00:58;28.90;76.40
22974;DHT22;11653;50.848;4.584;2022-08-21T09:03:26;29.70;73.90
22974;DHT22;11653;50.848;4.584;2022-08-21T09:06:20;30.20;72.10
22974;DHT22;11653;50.848;4.584;2022-08-21T09:11:44;32.00;66.30
22974;DHT22;11653;50.848;4.584;2022-08-21T09:17:13;32.20;65.20
22974;DHT22;11653;50.848;4.584;2022-08-21T09:25:21;31.90;65.30
22974;DHT22;11653;50.848;4.584;2022-08-21T09:27:47;32.00;64.20
22974;DHT22;11653;50.848;4.584;2022-08-21T09:30:14;32.00;64.30
22974;DHT22;11653;50.848;4.584;2022-08-21T09:32:40;32.00;64.50
22974;DHT22;11653;50.848;4.584;2022-08-21T09:35:08;32.00;63.60
22974;DHT22;11653;50.848;4.584;2022-08-21T09:37:53;32.10;63.20
22974;DHT22;11653;50.848;4.584;2022-08-21T09:43:01;32.10;62.50
22974;DHT22;11653;50.848;4.584;2022-08-21T09:45:27;32.00;64.30
22974;DHT22;11653;50.848;4.584;2022-08-21T09:47:54;32.30;62.60
22974;DHT22;11653;50.848;4.584;2022-08-21T09:50:23;32.70;61.00
22974;DHT22;11653;50.848;4.584;2022-08-21T09:52:58;33.40;60.90
22974;DHT22;11653;50.848;4.584;2022-08-21T09:55:52;33.40;60.50
22974;DHT22;11653;50.848;4.584;2022-08-21T09:58:39;33.50;59.40
22974;DHT22;11653;50.848;4.584;2022-08-21T10:01:11;33.80;59.20
22974;DHT22;11653;50.848;4.584;2022-08-21T10:03:37;33.70;59.30
22974;DHT22;11653;50.848;4.584;2022-08-21T10:06:06;32.90;59.70
22974;DHT22;11653;50.848;4.584;2022-08-21T10:08:36;31.90;62.10
22974;DHT22;11653;50.848;4.584;2022-08-21T10:11:09;30.80;62.70
22974;DHT22;11653;50.848;4.584;2022-08-21T10:21:36;28.40;71.60
22974;DHT22;11653;50.848;4.584;2022-08-21T10:24:10;28.00;73.90
22974;DHT22;11653;50.848;4.584;2022-08-21T10:29:42;28.20;73.50
22974;DHT22;11653;50.848;4.584;2022-08-21T10:35:22;28.60;72.50
22974;DHT22;11653;50.848;4.584;2022-08-21T10:37:52;29.20;71.80
22974;DHT22;11653;50.848;4.584;2022-08-21T10:40:22;30.30;68.90
22974;DHT22;11653;50.848;4.584;2022-08-21T10:46:06;33.20;60.30
22974;DHT22;11653;50.848;4.584;2022-08-21T10:55:02;32.10;60.80
22974;DHT22;11653;50.848;4.584;2022-08-21T10:57:53;31.60;62.10
22974;DHT22;11653;50.848;4.584;2022-08-21T11:00:22;31.50;64.40
22974;DHT22;11653;50.848;4.584;2022-08-21T11:05:33;32.40;60.00
22974;DHT22;11653;50.848;4.584;2022-08-21T11:08:10;33.30;59.00
22974;DHT22;11653;50.848;4.584;2022-08-21T11:10:50;34.00;58.50
22974;DHT22;11653;50.848;4.584;2022-08-21T11:16:05;34.10;56.50
22974;DHT22;11653;50.848;4.584;2022-08-21T11:18:43;33.60;56.60
22974;DHT22;11653;50.848;4.584;2022-08-21T11:27:01;30.40;63.70
22974;DHT22;11653;50.848;4.584;2022-08-21T11:29:35;29.90;65.90
22974;DHT22;11653;50.848;4.584;2022-08-21T11:32:30;29.50;67.20
22974;DHT22;11653;50.848;4.584;2022-08-21T11:35:13;29.20;67.90
22974;DHT22;11653;50.848;4.584;2022-08-21T11:51:44;29.90;64.70
22974;DHT22;11653;50.848;4.584;2022-08-21T11:54:16;29.30;67.00
22974;DHT22;11653;50.848;4.584;2022-08-21T11:56:51;29.10;69.10
22974;DHT22;11653;50.848;4.584;2022-08-21T11:59:59;29.00;68.70
22974;DHT22;11653;50.848;4.584;2022-08-21T12:02:21;29.00;69.10
22974;DHT22;11653;50.848;4.584;2022-08-21T12:04:56;29.10;69.10
22974;DHT22;11653;50.848;4.584;2022-08-21T12:09:59;29.80;67.10
22974;DHT22;11653;50.848;4.584;2022-08-21T12:12:28;30.30;65.30
22974;DHT22;11653;50.848;4.584;2022-08-21T12:17:41;31.00;63.20
22974;DHT22;11653;50.848;4.584;2022-08-21T12:20:18;31.10;62.00
22974;DHT22;11653;50.848;4.584;2022-08-21T12:23:12;31.70;61.90
22974;DHT22;11653;50.848;4.584;2022-08-21T12:28:25;32.40;58.60
22974;DHT22;11653;50.848;4.584;2022-08-21T12:30:51;32.30;58.60
22974;DHT22;11653;50.848;4.584;2022-08-21T12:33:38;32.10;60.00
22974;DHT22;11653;50.848;4.584;2022-08-21T12:36:18;31.30;61.40
22974;DHT22;11653;50.848;4.584;2022-08-21T12:38:59;30.60;62.30
22974;DHT22;11653;50.848;4.584;2022-08-21T12:41:33;30.20;63.80
22974;DHT22;11653;50.848;4.584;2022-08-21T12:44:08;29.90;62.80
22974;DHT22;11653;50.848;4.584;2022-08-21T12:46:39;29.50;64.20
22974;DHT22;11653;50.848;4.584;2022-08-21T12:52:02;28.40;69.90
22974;DHT22;11653;50.848;4.584;2022-08-21T12:54:30;27.90;69.70
22974;DHT22;11653;50.848;4.584;2022-08-21T12:57:02;27.60;70.50
22974;DHT22;11653;50.848;4.584;2022-08-21T12:59:29;27.60;69.90
22974;DHT22;11653;50.848;4.584;2022-08-21T13:01:57;27.50;70.90
22974;DHT22;11653;50.848;4.584;2022-08-21T13:04:35;27.50;71.50
22974;DHT22;11653;50.848;4.584;2022-08-21T13:07:15;27.50;68.40
22974;DHT22;11653;50.848;4.584;2022-08-21T13:09:48;27.50;72.40
22974;DHT22;11653;50.848;4.584;2022-08-21T13:12:16;27.40;69.40
22974;DHT22;11653;50.848;4.584;2022-08-21T13:14:44;27.40;71.00
22974;DHT22;11653;50.848;4.584;2022-08-21T13:17:18;27.40;70.10
22974;DHT22;11653;50.848;4.584;2022-08-21T13:20:02;27.20;69.90
22974;DHT22;11653;50.848;4.584;2022-08-21T13:22:29;27.10;71.20
22974;DHT22;11653;50.848;4.584;2022-08-21T13:24:55;27.20;70.20
22974;DHT22;11653;50.848;4.584;2022-08-21T13:27:29;27.30;69.40
22974;DHT22;11653;50.848;4.584;2022-08-21T13:30:14;27.50;68.40
22974;DHT22;11653;50.848;4.584;2022-08-21T13:32:45;27.50;68.40
22974;DHT22;11653;50.848;4.584;2022-08-21T13:35:24;27.60;68.90
22974;DHT22;11653;50.848;4.584;2022-08-21T13:37:51;27.80;69.60
22974;DHT22;11653;50.848;4.584;2022-08-21T13:40:29;27.70;67.90
22974;DHT22;11653;50.848;4.584;2022-08-21T13:42:56;27.80;68.80
22974;DHT22;11653;50.848;4.584;2022-08-21T13:45:25;27.70;68.40
22974;DHT22;11653;50.848;4.584;2022-08-21T13:47:54;27.50;67.80
22974;DHT22;11653;50.848;4.584;2022-08-21T13:50:22;27.30;69.10
22974;DHT22;11653;50.848;4.584;2022-08-21T13:52:58;27.20;69.00
22974;DHT22;11653;50.848;4.584;2022-08-21T13:55:25;27.30;70.00
22974;DHT22;11653;50.848;4.584;2022-08-21T13:58:01;27.30;69.00
22974;DHT22;11653;50.848;4.584;2022-08-21T14:00:30;27.20;70.80
22974;DHT22;11653;50.848;4.584;2022-08-21T14:03:03;27.10;70.10
22974;DHT22;11653;50.848;4.584;2022-08-21T14:05:33;27.10;69.60
22974;DHT22;11653;50.848;4.584;2022-08-21T14:08:14;27.10;70.40
22974;DHT22;11653;50.848;4.584;2022-08-21T14:10:48;27.00;70.60
22974;DHT22;11653;50.848;4.584;2022-08-21T14:13:45;27.10;72.20
22974;DHT22;11653;50.848;4.584;2022-08-21T14:19:05;27.10;70.40
22974;DHT22;11653;50.848;4.584;2022-08-21T14:21:40;27.20;70.10
22974;DHT22;11653;50.848;4.584;2022-08-21T14:24:11;27.40;70.30
22974;DHT22;11653;50.848;4.584;2022-08-21T14:26:51;27.50;71.40
22974;DHT22;11653;50.848;4.584;2022-08-21T14:29:19;27.60;70.00
22974;DHT22;11653;50.848;4.584;2022-08-21T14:31:57;27.50;68.90
22974;DHT22;11653;50.848;4.584;2022-08-21T14:34:28;27.60;70.50
22974;DHT22;11653;50.848;4.584;2022-08-21T14:36:55;27.70;70.10
22974;DHT22;11653;50.848;4.584;2022-08-21T14:39:21;27.60;69.60
22974;DHT22;11653;50.848;4.584;2022-08-21T14:41:47;27.50;71.10
22974;DHT22;11653;50.848;4.584;2022-08-21T14:44:16;27.30;71.60
22974;DHT22;11653;50.848;4.584;2022-08-21T14:46:42;27.10;71.70
22974;DHT22;11653;50.848;4.584;2022-08-21T14:49:08;27.00;72.70
22974;DHT22;11653;50.848;4.584;2022-08-21T14:51:34;27.00;72.70
22974;DHT22;11653;50.848;4.584;2022-08-21T14:53:59;26.90;72.40
22974;DHT22;11653;50.848;4.584;2022-08-21T14:56:25;27.00;72.40
22974;DHT22;11653;50.848;4.584;2022-08-21T14:58:52;27.00;72.20
22974;DHT22;11653;50.848;4.584;2022-08-21T15:01:20;26.90;73.20
22974;DHT22;11653;50.848;4.584;2022-08-21T15:03:46;26.90;72.40
22974;DHT22;11653;50.848;4.584;2022-08-21T15:06:15;26.90;72.10
22974;DHT22;11653;50.848;4.584;2022-08-21T15:08:41;26.80;73.20
22974;DHT22;11653;50.848;4.584;2022-08-21T15:11:09;26.80;73.20
22974;DHT22;11653;50.848;4.584;2022-08-21T15:13:37;26.90;71.40
22974;DHT22;11653;50.848;4.584;2022-08-21T15:16:03;26.90;72.80
22974;DHT22;11653;50.848;4.584;2022-08-21T15:18:29;26.90;74.30
22974;DHT22;11653;50.848;4.584;2022-08-21T15:20:56;27.00;73.70
22974;DHT22;11653;50.848;4.584;2022-08-21T15:23:22;27.10;73.60
22974;DHT22;11653;50.848;4.584;2022-08-21T15:25:49;27.30;73.20
22974;DHT22;11653;50.848;4.584;2022-08-21T15:28:16;27.30;71.40
22974;DHT22;11653;50.848;4.584;2022-08-21T15:30:43;27.30;73.20
22974;DHT22;11653;50.848;4.584;2022-08-21T15:33:09;27.30;71.60
22974;DHT22;11653;50.848;4.584;2022-08-21T15:35:35;27.30;73.10
22974;DHT22;11653;50.848;4.584;2022-08-21T15:38:01;27.10;72.60
22974;DHT22;11653;50.848;4.584;2022-08-21T15:40:27;27.20;75.70
22974;DHT22;11653;50.848;4.584;2022-08-21T15:42:57;27.20;71.70
22974;DHT22;11653;50.848;4.584;2022-08-21T15:45:24;27.10;72.40
22974;DHT22;11653;50.848;4.584;2022-08-21T15:47:50;27.10;74.30
22974;DHT22;11653;50.848;4.584;2022-08-21T15:50:16;27.10;71.40
22974;DHT22;11653;50.848;4.584;2022-08-21T15:52:42;27.10;74.20
22974;DHT22;11653;50.848;4.584;2022-08-21T15:55:09;27.20;75.70
22974;DHT22;11653;50.848;4.584;2022-08-21T15:57:35;27.20;75.00
22974;DHT22;11653;50.848;4.584;2022-08-21T16:00:22;27.10;75.00
22974;DHT22;11653;50.848;4.584;2022-08-21T16:02:52;26.90;78.10
22974;DHT22;11653;50.848;4.584;2022-08-21T16:05:19;26.80;77.80
22974;DHT22;11653;50.848;4.584;2022-08-21T16:07:46;26.80;79.60
22974;DHT22;11653;50.848;4.584;2022-08-21T16:10:14;26.80;75.70
22974;DHT22;11653;50.848;4.584;2022-08-21T16:12:47;26.70;76.70
22974;DHT22;11653;50.848;4.584;2022-08-21T16:15:15;26.50;76.20
22974;DHT22;11653;50.848;4.584;2022-08-21T16:17:43;26.50;78.00
22974;DHT22;11653;50.848;4.584;2022-08-21T16:20:14;26.40;78.60
22974;DHT22;11653;50.848;4.584;2022-08-21T16:22:41;26.40;78.20
22974;DHT22;11653;50.848;4.584;2022-08-21T16:25:07;26.20;79.00
22974;DHT22;11653;50.848;4.584;2022-08-21T16:27:34;26.20;79.80
22974;DHT22;11653;50.848;4.584;2022-08-21T16:30:01;26.20;80.40
22974;DHT22;11653;50.848;4.584;2022-08-21T16:32:27;26.20;81.80
22974;DHT22;11653;50.848;4.584;2022-08-21T16:34:54;26.30;81.40
22974;DHT22;11653;50.848;4.584;2022-08-21T16:37:20;26.20;82.60
22974;DHT22;11653;50.848;4.584;2022-08-21T16:39:47;26.20;81.70
22974;DHT22;11653;50.848;4.584;2022-08-21T16:42:14;26.20;81.30
22974;DHT22;11653;50.848;4.584;2022-08-21T16:44:42;26.20;78.10
22974;DHT22;11653;50.848;4.584;2022-08-21T16:47:08;26.10;82.10
22974;DHT22;11653;50.848;4.584;2022-08-21T16:49:34;26.10;80.90
22974;DHT22;11653;50.848;4.584;2022-08-21T16:51:59;26.10;81.10
22974;DHT22;11653;50.848;4.584;2022-08-21T16:54:25;26.10;80.70
22974;DHT22;11653;50.848;4.584;2022-08-21T16:56:51;26.00;82.10
22974;DHT22;11653;50.848;4.584;2022-08-21T16:59:17;25.90;83.50